Time;durP1;ratioP1;P1;durP2;ratioP2;P2;SDS_P1;SDS_P2;PMS_P1;PMS_P2;Temp;Humidity;BMP_temperature;BMP_pressure;BME280_temperature;BME280_humidity;BME280_pressure;Samples;Min_cycle;Max_cycle;Signal;HPM_P1;HPM_P2
2022/08/17 00:00:47;;;;;;;9.75;6.55;;;22.40;99.90;;;;;;4978908;28;20054;-58
2022/08/17 00:03:24;;;;;;;7.30;6.15;;;22.20;99.90;;;;;;4983032;28;20022;-59
2022/08/17 00:05:57;;;;;;;12.70;6.93;;;22.10;99.90;;;;;;4977767;28;20035;-59
2022/08/17 00:08:30;;;;;;;10.95;6.80;;;21.90;99.90;;;;;;4984455;28;20031;-58
2022/08/17 00:10:58;;;;;;;10.82;6.72;;;22.10;99.90;;;;;;4980688;28;20030;-59
2022/08/17 00:13:30;;;;;;;11.15;6.93;;;22.30;99.90;;;;;;4982250;28;20386;-58
2022/08/17 00:16:00;;;;;;;12.98;6.82;;;22.40;99.90;;;;;;4980393;28;20479;-58
2022/08/17 00:18:27;;;;;;;12.10;6.63;;;22.50;99.90;;;;;;4979637;28;20056;-58
2022/08/17 00:20:54;;;;;;;14.20;7.40;;;22.60;99.90;;;;;;4981260;28;20018;-59
2022/08/17 00:23:20;;;;;;;11.02;6.65;;;22.70;99.90;;;;;;4981245;28;20513;-59
2022/08/17 00:25:46;;;;;;;9.82;6.95;;;22.70;99.90;;;;;;4985990;28;20066;-58
2022/08/17 00:28:16;;;;;;;13.00;6.32;;;22.80;99.90;;;;;;4984149;28;20041;-58
2022/08/17 00:30:45;;;;;;;11.95;7.53;;;22.90;99.90;;;;;;4984289;28;20732;-58
2022/08/17 00:33:17;;;;;;;10.25;6.90;;;22.80;99.90;;;;;;4984779;28;20758;-58
2022/08/17 00:35:44;;;;;;;11.55;6.82;;;22.80;99.90;;;;;;4982622;28;20470;-57
2022/08/17 00:38:11;;;;;;;7.70;6.88;;;22.90;99.90;;;;;;4983191;28;20026;-58
2022/08/17 00:40:41;;;;;;;13.60;6.82;;;22.80;99.90;;;;;;4982878;28;20022;-58
2022/08/17 00:43:36;;;;;;;13.43;7.03;;;22.80;99.90;;;;;;4984669;28;20023;-59
2022/08/17 00:46:09;;;;;;;13.63;7.38;;;22.80;99.90;;;;;;4979024;28;20061;-58
2022/08/17 00:48:35;;;;;;;8.68;6.90;;;22.80;99.90;;;;;;4982929;28;20505;-58
2022/08/17 00:51:29;;;;;;;10.88;7.13;;;22.80;99.90;;;;;;4981270;28;20176;-58
2022/08/17 00:54:09;;;;;;;8.75;6.90;;;22.60;99.90;;;;;;4982499;28;20042;-59
2022/08/17 00:56:40;;;;;;;9.73;6.72;;;22.80;99.90;;;;;;4989672;28;20608;-58
2022/08/17 00:59:08;;;;;;;11.77;7.20;;;22.70;99.90;;;;;;4981912;28;20471;-58
2022/08/17 01:01:34;;;;;;;7.90;6.22;;;22.70;99.90;;;;;;4987319;28;20030;-58
2022/08/17 01:04:01;;;;;;;10.80;6.85;;;22.70;99.90;;;;;;4976674;28;20453;-59
2022/08/17 01:06:27;;;;;;;8.48;7.57;;;22.70;99.90;;;;;;4977332;28;20099;-58
2022/08/17 01:08:56;;;;;;;10.35;7.47;;;22.60;99.90;;;;;;4982303;28;20023;-58
2022/08/17 01:11:22;;;;;;;10.80;7.50;;;22.60;99.90;;;;;;4982419;28;20068;-58
2022/08/17 01:13:48;;;;;;;9.90;7.10;;;22.50;99.90;;;;;;4982642;28;20031;-58
2022/08/17 01:16:25;;;;;;;12.10;7.65;;;22.60;99.90;;;;;;4987634;28;20386;-58
2022/08/17 01:18:55;;;;;;;12.23;7.15;;;22.60;99.90;;;;;;4977878;28;20046;-58
2022/08/17 01:22:02;;;;;;;11.98;7.18;;;22.70;99.90;;;;;;4981853;28;20518;-58
2022/08/17 01:24:29;;;;;;;11.93;7.55;;;22.60;99.90;;;;;;4991871;28;20029;-57
2022/08/17 01:26:54;;;;;;;9.63;7.50;;;22.60;99.90;;;;;;4984656;28;20037;-59
2022/08/17 01:29:21;;;;;;;15.80;8.10;;;22.50;99.90;;;;;;4980535;28;20034;-58
2022/08/17 01:31:52;;;;;;;12.75;7.72;;;22.50;99.90;;;;;;4983590;28;20521;-59
2022/08/17 01:34:18;;;;;;;10.07;6.97;;;22.30;99.90;;;;;;4975525;28;20526;-58
2022/08/17 01:36:47;;;;;;;11.30;7.45;;;22.30;99.90;;;;;;4985089;28;20068;-58
2022/08/17 01:39:27;;;;;;;12.23;8.10;;;22.30;99.90;;;;;;4983578;28;20019;-58
2022/08/17 01:41:59;;;;;;;14.65;7.53;;;22.30;99.90;;;;;;4984328;28;20042;-58
2022/08/17 01:44:26;;;;;;;11.03;8.13;;;22.40;99.90;;;;;;4981062;28;20070;-58
2022/08/17 01:46:52;;;;;;;11.65;7.82;;;22.40;99.90;;;;;;4984217;28;20289;-58
2022/08/17 01:49:18;;;;;;;9.43;7.80;;;22.30;99.90;;;;;;4988866;28;20033;-59
2022/08/17 01:51:43;;;;;;;10.63;7.88;;;22.30;99.90;;;;;;4986442;28;20401;-58
2022/08/17 01:54:12;;;;;;;12.45;7.88;;;22.00;99.90;;;;;;4983474;28;20030;-58
2022/08/17 01:56:41;;;;;;;12.15;8.15;;;21.90;99.90;;;;;;4984810;28;20647;-58
2022/08/17 01:59:06;;;;;;;10.73;8.23;;;22.00;99.90;;;;;;4989292;28;20223;-58
2022/08/17 02:01:33;;;;;;;10.52;8.55;;;21.90;99.90;;;;;;4987848;28;20670;-59
2022/08/17 02:04:00;;;;;;;9.23;8.32;;;21.80;99.90;;;;;;4988248;28;20120;-58
2022/08/17 02:06:28;;;;;;;15.57;8.80;;;21.60;99.90;;;;;;4986175;28;20046;-58
2022/08/17 02:08:54;;;;;;;13.73;8.73;;;21.60;99.90;;;;;;4984155;28;20038;-58
2022/08/17 02:11:20;;;;;;;13.65;8.90;;;21.40;99.90;;;;;;4986801;28;20034;-58
2022/08/17 02:13:50;;;;;;;12.05;8.75;;;21.40;99.90;;;;;;4984510;28;20157;-59
2022/08/17 02:16:17;;;;;;;11.23;8.50;;;21.60;99.90;;;;;;4985084;28;20033;-58
2022/08/17 02:18:43;;;;;;;12.65;9.18;;;21.80;99.90;;;;;;4986167;28;20410;-58
2022/08/17 02:21:09;;;;;;;12.45;8.93;;;21.50;99.90;;;;;;4988023;28;20085;-58
2022/08/17 02:23:39;;;;;;;11.43;8.63;;;21.40;99.90;;;;;;4982087;28;20116;-58
2022/08/17 02:26:06;;;;;;;12.43;8.90;;;21.20;99.90;;;;;;4985192;28;20030;-58
2022/08/17 02:28:32;;;;;;;10.60;9.20;;;21.20;99.90;;;;;;4982278;28;20031;-58
2022/08/17 02:31:06;;;;;;;9.88;8.98;;;21.40;99.90;;;;;;4984233;28;20081;-58
2022/08/17 02:33:33;;;;;;;10.63;9.45;;;21.20;99.90;;;;;;4984289;28;20038;-58
2022/08/17 02:35:58;;;;;;;13.43;9.23;;;21.10;99.90;;;;;;4982961;28;20023;-57
2022/08/17 02:38:24;;;;;;;11.20;9.27;;;21.10;99.90;;;;;;4987184;28;20110;-58
2022/08/17 02:40:50;;;;;;;9.00;8.10;;;21.20;99.90;;;;;;4985276;28;20034;-57
2022/08/17 02:43:15;;;;;;;11.82;9.23;;;21.00;99.90;;;;;;4991795;28;20031;-58
2022/08/17 02:45:42;;;;;;;10.18;9.00;;;20.80;99.90;;;;;;4986534;28;20038;-58
2022/08/17 02:48:09;;;;;;;12.73;9.30;;;20.80;99.90;;;;;;4985533;28;20470;-57
2022/08/17 02:50:35;;;;;;;9.70;8.60;;;20.90;99.90;;;;;;4986996;28;20504;-58
2022/08/17 02:53:00;;;;;;;12.18;9.18;;;20.90;99.90;;;;;;4987243;28;20096;-58
2022/08/17 02:55:29;;;;;;;10.23;9.10;;;20.80;99.90;;;;;;4986875;28;20030;-58
2022/08/17 02:57:55;;;;;;;10.32;8.50;;;20.80;99.90;;;;;;4981684;28;20026;-58
2022/08/17 03:00:27;;;;;;;11.02;8.75;;;20.80;99.90;;;;;;4983973;28;20029;-58
2022/08/17 03:02:55;;;;;;;10.40;9.18;;;20.70;99.90;;;;;;4980693;28;20069;-58
2022/08/17 03:05:24;;;;;;;11.13;9.02;;;20.70;99.90;;;;;;4985044;28;20034;-58
2022/08/17 03:07:50;;;;;;;11.05;8.75;;;20.60;99.90;;;;;;4980059;28;20069;-58
2022/08/17 03:10:17;;;;;;;11.90;8.77;;;20.50;99.90;;;;;;4986753;28;20045;-57
2022/08/17 03:12:44;;;;;;;11.40;9.48;;;20.60;99.90;;;;;;4986253;28;20054;-58
2022/08/17 03:15:30;;;;;;;9.55;8.55;;;20.70;99.90;;;;;;4982145;28;20030;-58
2022/08/17 03:17:57;;;;;;;10.77;8.88;;;20.60;99.90;;;;;;4985444;28;20382;-58
2022/08/17 03:20:24;;;;;;;9.93;8.93;;;20.60;99.90;;;;;;4984335;28;20145;-58
2022/08/17 03:22:51;;;;;;;13.88;9.45;;;20.50;99.90;;;;;;4986445;28;20026;-58
2022/08/17 03:25:24;;;;;;;12.07;9.27;;;20.60;99.90;;;;;;4985877;28;20151;-58
2022/08/17 03:27:49;;;;;;;11.25;9.70;;;20.50;99.90;;;;;;4985571;28;20026;-58
2022/08/17 03:30:15;;;;;;;12.75;9.52;;;20.60;99.90;;;;;;4983514;28;20533;-58
2022/08/17 03:32:46;;;;;;;10.65;9.55;;;20.50;99.90;;;;;;4986229;28;20073;-58
2022/08/17 03:35:15;;;;;;;11.52;8.40;;;20.50;99.90;;;;;;4983307;28;20022;-59
2022/08/17 03:37:41;;;;;;;9.88;8.80;;;20.40;99.90;;;;;;4987871;28;20157;-58
2022/08/17 03:40:08;;;;;;;12.05;8.80;;;20.40;99.90;;;;;;4982752;28;20022;-58
2022/08/17 03:42:37;;;;;;;11.57;9.48;;;20.40;99.90;;;;;;4983064;28;21322;-58
2022/08/17 03:45:04;;;;;;;10.77;9.75;;;20.50;99.90;;;;;;4991312;28;20649;-58
2022/08/17 03:58:32;;;;;;;11.70;9.57;;;21.10;99.90;;;;;;4982131;28;20548;-59
2022/08/17 04:00:58;;;;;;;10.55;9.30;;;20.90;99.90;;;;;;4983212;28;20027;-57
2022/08/17 04:03:24;;;;;;;10.60;9.20;;;20.80;99.90;;;;;;4983559;28;20240;-58
2022/08/17 04:05:50;;;;;;;15.93;9.20;;;20.70;99.90;;;;;;4981056;28;20149;-58
2022/08/17 04:08:15;;;;;;;10.65;9.55;;;20.70;99.90;;;;;;4983709;28;20040;-58
2022/08/17 04:10:41;;;;;;;10.52;9.27;;;20.70;99.90;;;;;;4990052;28;20080;-59
2022/08/17 04:13:06;;;;;;;11.57;9.77;;;20.70;99.90;;;;;;4978454;28;20030;-56
2022/08/17 04:15:32;;;;;;;14.20;9.32;;;20.50;99.90;;;;;;4984484;28;20026;-58
2022/08/17 04:17:58;;;;;;;10.40;9.30;;;20.40;99.90;;;;;;4983483;28;20042;-57
2022/08/17 04:20:24;;;;;;;11.80;9.73;;;20.30;99.90;;;;;;4990515;28;20022;-57
2022/08/17 04:23:03;;;;;;;12.35;9.65;;;20.40;99.90;;;;;;4975869;28;20097;-58
2022/08/17 04:25:32;;;;;;;9.82;8.82;;;20.40;99.90;;;;;;4984632;28;20026;-58
2022/08/17 04:27:59;;;;;;;11.73;9.20;;;20.40;99.90;;;;;;4980269;28;20033;-58
2022/08/17 04:30:26;;;;;;;12.48;9.25;;;20.50;99.90;;;;;;4986955;28;20548;-58
2022/08/17 04:33:07;;;;;;;11.18;9.45;;;20.60;99.90;;;;;;4987210;28;20042;-58
2022/08/17 04:35:44;;;;;;;12.00;9.70;;;20.50;99.90;;;;;;4982357;28;20124;-57
2022/08/17 04:38:13;;;;;;;10.77;8.68;;;20.40;99.90;;;;;;4984037;28;20034;-58
2022/08/17 04:43:26;;;;;;;11.77;8.93;;;20.60;99.90;;;;;;4980995;28;20041;-58
2022/08/17 04:45:55;;;;;;;11.88;8.48;;;20.60;99.90;;;;;;4983266;28;20427;-58
2022/08/17 04:48:20;;;;;;;9.77;8.43;;;20.50;99.90;;;;;;4981950;28;20548;-58
2022/08/17 04:50:48;;;;;;;13.05;8.70;;;20.50;99.90;;;;;;4982286;28;20196;-58
2022/08/17 04:53:15;;;;;;;15.40;8.60;;;20.60;99.90;;;;;;4985954;28;20041;-58
2022/08/17 04:55:41;;;;;;;10.07;8.13;;;20.70;99.90;;;;;;4985353;28;20038;-58
2022/08/17 04:58:08;;;;;;;10.30;8.50;;;20.80;99.90;;;;;;4986840;28;20401;-57
2022/08/17 05:00:33;;;;;;;10.95;8.18;;;20.60;99.90;;;;;;4984875;28;20041;-58
2022/08/17 05:02:59;;;;;;;13.15;8.50;;;20.60;99.90;;;;;;4984684;28;20030;-58
2022/08/17 05:05:31;;;;;;;10.55;8.10;;;20.60;99.90;;;;;;4975958;28;20026;-58
2022/08/17 05:08:01;;;;;;;9.55;7.88;;;20.60;99.90;;;;;;4984774;28;20101;-58
2022/08/17 05:10:31;;;;;;;11.80;8.50;;;20.60;99.90;;;;;;4982637;28;20041;-58
2022/08/17 05:13:07;;;;;;;10.40;8.63;;;20.70;99.90;;;;;;4985061;28;20114;-58
2022/08/17 05:15:34;;;;;;;10.10;8.38;;;20.70;99.90;;;;;;4980313;28;20430;-58
2022/08/17 05:18:00;;;;;;;12.13;8.20;;;20.70;99.90;;;;;;4984240;28;20030;-57
2022/08/17 05:20:26;;;;;;;12.07;8.43;;;20.80;99.90;;;;;;4984293;28;20069;-58
2022/08/17 05:22:55;;;;;;;12.10;7.70;;;20.90;99.90;;;;;;4985133;28;20030;-57
2022/08/17 05:25:24;;;;;;;14.68;8.00;;;20.90;99.90;;;;;;4984770;28;20136;-56
2022/08/17 05:27:51;;;;;;;12.48;9.80;;;21.00;99.90;;;;;;4984640;28;20041;-59
2022/08/17 05:30:17;;;;;;;9.80;8.25;;;21.00;99.90;;;;;;4985311;28;20022;-59
2022/08/17 05:33:03;;;;;;;10.13;7.20;;;21.00;99.90;;;;;;4987561;28;20187;-57
2022/08/17 05:35:30;;;;;;;7.40;6.00;;;21.10;99.90;;;;;;4986739;28;20034;-58
2022/08/17 05:37:56;;;;;;;8.65;6.35;;;21.10;99.90;;;;;;4988359;28;20108;-56
2022/08/17 05:40:24;;;;;;;7.20;6.03;;;21.10;99.90;;;;;;4985168;28;20070;-57
2022/08/17 05:42:51;;;;;;;8.48;5.60;;;21.30;99.90;;;;;;4987612;28;20030;-57
2022/08/17 05:45:19;;;;;;;6.00;5.22;;;21.30;99.90;;;;;;4985729;28;20030;-58
2022/08/17 05:47:46;;;;;;;9.40;5.78;;;21.20;99.90;;;;;;4985775;28;20183;-56
2022/08/17 05:50:24;;;;;;;7.35;5.85;;;21.60;99.90;;;;;;4982188;28;20027;-58
2022/08/17 05:53:17;;;;;;;9.43;5.82;;;21.60;99.90;;;;;;4980379;28;20038;-56
2022/08/17 05:56:14;;;;;;;13.13;6.60;;;21.50;99.90;;;;;;4984716;28;20121;-57
2022/08/17 05:59:07;;;;;;;8.23;5.90;;;21.70;99.90;;;;;;4983233;28;20034;-58
2022/08/17 06:01:53;;;;;;;6.68;5.20;;;21.60;99.90;;;;;;4985199;28;20035;-57
2022/08/17 06:04:45;;;;;;;8.90;5.45;;;21.70;99.90;;;;;;4982259;28;20896;-56
2022/08/17 06:07:28;;;;;;;13.80;5.22;;;21.70;99.90;;;;;;4985431;28;20022;-57
2022/08/17 06:10:08;;;;;;;11.82;5.90;;;21.70;99.90;;;;;;4982090;28;20956;-56
2022/08/17 06:12:56;;;;;;;12.77;4.88;;;21.70;99.90;;;;;;4982799;28;20045;-57
2022/08/17 06:15:52;;;;;;;6.53;4.88;;;21.80;99.90;;;;;;4976404;28;20038;-57
2022/08/17 06:18:22;;;;;;;8.68;4.85;;;21.90;99.90;;;;;;4984618;28;20053;-57
2022/08/17 06:21:00;;;;;;;6.63;4.30;;;22.10;99.90;;;;;;4991513;28;20084;-57
2022/08/17 06:23:37;;;;;;;11.10;4.32;;;22.30;99.90;;;;;;4982230;28;20089;-56
2022/08/17 06:26:18;;;;;;;10.55;4.43;;;22.40;99.90;;;;;;4982946;28;20105;-58
2022/08/17 06:28:52;;;;;;;7.80;4.72;;;22.50;99.90;;;;;;4987387;28;20178;-57
2022/08/17 06:31:31;;;;;;;9.30;4.78;;;22.60;99.90;;;;;;4981169;28;20034;-57
2022/08/17 06:34:00;;;;;;;11.52;4.82;;;22.70;99.90;;;;;;4992228;28;20038;-58
2022/08/17 06:36:31;;;;;;;11.40;4.72;;;22.80;99.90;;;;;;4983169;28;20448;-57
2022/08/17 06:39:28;;;;;;;11.98;5.25;;;22.90;99.90;;;;;;4983644;28;20065;-58
2022/08/17 06:42:29;;;;;;;9.50;5.60;;;23.00;99.90;;;;;;4983401;28;20041;-58
2022/08/17 06:45:14;;;;;;;13.77;5.43;;;23.10;99.90;;;;;;4983268;28;20437;-57
2022/08/17 06:47:42;;;;;;;13.75;6.10;;;23.30;99.90;;;;;;4984780;28;20054;-57
2022/08/17 06:50:22;;;;;;;10.65;6.38;;;23.30;99.90;;;;;;4989866;28;20031;-58
2022/08/17 06:53:12;;;;;;;15.35;7.53;;;23.40;99.90;;;;;;4984812;28;20037;-57
2022/08/17 06:55:50;;;;;;;15.50;8.60;;;23.50;99.90;;;;;;4984522;28;20034;-58
2022/08/17 06:58:22;;;;;;;13.07;7.20;;;23.50;99.90;;;;;;4986068;28;20045;-57
2022/08/17 07:00:50;;;;;;;14.43;8.40;;;23.60;99.90;;;;;;4987883;28;20105;-57
2022/08/17 07:03:36;;;;;;;11.95;8.70;;;23.50;99.90;;;;;;4982084;28;20027;-58
2022/08/17 07:06:12;;;;;;;13.65;8.98;;;23.60;99.90;;;;;;4979832;28;20038;-57
2022/08/17 07:08:48;;;;;;;10.85;9.07;;;23.60;99.90;;;;;;4982950;28;20171;-58
2022/08/17 07:11:19;;;;;;;17.23;9.10;;;23.70;99.90;;;;;;4977790;28;20031;-57
2022/08/17 07:13:50;;;;;;;11.05;9.88;;;23.70;99.90;;;;;;4980629;28;20478;-57
2022/08/17 07:16:45;;;;;;;14.23;9.30;;;23.70;99.90;;;;;;4985464;28;20022;-58
2022/08/17 07:19:12;;;;;;;15.85;10.18;;;23.70;99.90;;;;;;4983130;28;20045;-58
2022/08/17 07:21:59;;;;;;;14.80;10.68;;;23.70;99.90;;;;;;4981595;28;20026;-58
2022/08/17 07:24:40;;;;;;;22.50;12.75;;;23.50;99.90;;;;;;4983156;28;20037;-58
2022/08/17 07:27:10;;;;;;;14.40;11.18;;;23.60;99.90;;;;;;4983617;28;20154;-58
2022/08/17 07:29:48;;;;;;;19.48;13.05;;;23.60;99.90;;;;;;4984829;28;20109;-57
2022/08/17 07:32:18;;;;;;;17.75;12.20;;;23.60;99.90;;;;;;4981763;28;20197;-58
2022/08/17 07:35:00;;;;;;;21.92;12.55;;;23.70;99.90;;;;;;4986151;28;20531;-58
2022/08/17 07:37:26;;;;;;;17.55;13.35;;;23.70;99.90;;;;;;4983802;28;20053;-57
2022/08/17 07:39:51;;;;;;;18.83;13.70;;;23.80;99.90;;;;;;4984012;28;20538;-58
2022/08/17 07:42:17;;;;;;;18.33;14.55;;;23.70;99.90;;;;;;4983317;28;20436;-58
2022/08/17 07:44:54;;;;;;;20.50;14.77;;;23.60;99.90;;;;;;4995783;28;20026;-59
2022/08/17 07:50:28;;;;;;;17.52;13.45;;;23.70;99.90;;;;;;4981313;28;20085;-58
2022/08/17 07:52:54;;;;;;;20.63;14.60;;;24.00;99.90;;;;;;4985630;28;20153;-57
2022/08/17 07:55:46;;;;;;;23.80;13.43;;;23.90;99.90;;;;;;4984653;28;20109;-58
2022/08/17 07:58:29;;;;;;;25.52;16.08;;;23.90;99.90;;;;;;4982776;28;20038;-58
2022/08/17 08:01:07;;;;;;;18.30;14.93;;;23.70;99.90;;;;;;4979001;28;20667;-57
2022/08/17 08:03:38;;;;;;;18.25;15.32;;;23.80;99.90;;;;;;4982641;28;20486;-57
2022/08/17 08:06:20;;;;;;;19.73;16.38;;;23.90;99.90;;;;;;4975920;28;20069;-58
2022/08/17 08:08:53;;;;;;;18.55;16.60;;;23.90;99.90;;;;;;4980303;28;20495;-58
2022/08/17 08:11:34;;;;;;;24.27;18.48;;;23.90;99.90;;;;;;4981476;28;20061;-58
2022/08/17 08:14:24;;;;;;;20.70;18.48;;;23.70;99.90;;;;;;4983000;28;20066;-58
2022/08/17 08:17:02;;;;;;;21.15;18.10;;;23.80;99.90;;;;;;4981865;28;20239;-57
2022/08/17 08:19:30;;;;;;;22.00;17.08;;;23.80;99.90;;;;;;4982176;28;20478;-58
2022/08/17 08:22:10;;;;;;;24.27;18.55;;;24.00;99.90;;;;;;4984655;28;20036;-58
2022/08/17 08:24:51;;;;;;;22.63;16.98;;;24.20;99.90;;;;;;4983287;28;20049;-59
2022/08/17 08:27:29;;;;;;;23.30;16.10;;;24.10;99.90;;;;;;4981311;28;20108;-56
2022/08/17 08:30:03;;;;;;;21.80;17.10;;;24.30;99.90;;;;;;4981693;28;20034;-58
2022/08/17 08:32:36;;;;;;;20.73;17.23;;;24.40;99.90;;;;;;4984891;28;20036;-57
2022/08/17 08:35:11;;;;;;;22.13;19.05;;;24.50;99.90;;;;;;4984672;28;20026;-58
2022/08/17 08:38:25;;;;;;;21.30;17.13;;;24.60;99.90;;;;;;4983558;28;20030;-58
2022/08/17 08:41:15;;;;;;;22.67;16.00;;;24.70;99.90;;;;;;4981397;28;20178;-59
2022/08/17 08:43:59;;;;;;;27.80;21.20;;;24.80;99.90;;;;;;4981126;28;20038;-59
2022/08/17 08:46:58;;;;;;;21.20;18.70;;;24.70;99.90;;;;;;4980862;28;20027;-57
2022/08/17 08:49:44;;;;;;;25.05;18.98;;;24.60;99.90;;;;;;4980744;28;20031;-58
2022/08/17 08:52:42;;;;;;;23.80;20.98;;;24.60;99.90;;;;;;4982205;28;20755;-57
2022/08/17 08:55:21;;;;;;;24.92;21.00;;;24.70;99.90;;;;;;4981132;28;20248;-58
2022/08/17 08:57:58;;;;;;;30.33;22.40;;;24.80;99.90;;;;;;4981637;28;20093;-58
2022/08/17 09:00:26;;;;;;;27.48;21.17;;;24.80;99.90;;;;;;4978179;28;20730;-57
2022/08/17 09:03:09;;;;;;;29.60;22.77;;;24.80;99.90;;;;;;4983802;28;20022;-57
2022/08/17 09:06:14;;;;;;;24.85;21.40;;;24.80;99.90;;;;;;4980895;28;20076;-58
2022/08/17 09:08:52;;;;;;;23.45;20.67;;;24.90;99.90;;;;;;4979273;28;20535;-58
2022/08/17 09:11:21;;;;;;;26.00;21.08;;;24.90;99.90;;;;;;4979681;28;20030;-59
2022/08/17 09:14:00;;;;;;;26.05;20.30;;;25.00;99.90;;;;;;4977871;28;20504;-58
2022/08/17 09:16:51;;;;;;;23.55;20.90;;;24.90;99.90;;;;;;4981707;28;20033;-58
2022/08/17 09:19:28;;;;;;;24.45;21.80;;;24.60;99.90;;;;;;4978287;28;20046;-59
2022/08/17 09:22:00;;;;;;;24.30;21.70;;;24.70;99.90;;;;;;4977757;28;20026;-59
2022/08/17 09:24:34;;;;;;;28.15;21.55;;;24.80;99.90;;;;;;4980464;28;20022;-59
2022/08/17 09:27:12;;;;;;;27.75;21.92;;;24.90;99.90;;;;;;4980197;28;20038;-58
2022/08/17 09:29:46;;;;;;;27.42;22.58;;;24.80;99.90;;;;;;4983854;28;20118;-58
2022/08/17 09:32:30;;;;;;;27.42;19.95;;;24.60;99.90;;;;;;4979370;28;21004;-57
2022/08/17 09:34:59;;;;;;;;;;;24.80;99.90;;;;;;4981650;28;20038;-57
2022/08/17 09:37:38;;;;;;;24.67;20.65;;;24.70;99.90;;;;;;4980330;28;19909;-59
2022/08/17 09:40:17;;;;;;;25.67;22.52;;;24.80;99.90;;;;;;4981643;28;20126;-58
2022/08/17 09:42:54;;;;;;;28.15;23.95;;;24.80;99.90;;;;;;4984199;28;20396;-58
2022/08/17 09:45:41;;;;;;;27.08;24.27;;;24.70;99.90;;;;;;4981179;28;20030;-58
2022/08/17 09:48:21;;;;;;;30.95;24.33;;;24.50;99.90;;;;;;4981935;28;20034;-58
2022/08/17 09:51:11;;;;;;;28.83;23.40;;;24.40;99.90;;;;;;4981811;28;20034;-58
2022/08/17 09:53:38;;;;;;;25.17;21.73;;;24.40;99.90;;;;;;4986359;28;20856;-58
2022/08/17 09:56:25;;;;;;;26.75;23.67;;;24.40;99.90;;;;;;4983984;28;20018;-59
2022/08/17 09:59:04;;;;;;;25.45;22.60;;;24.60;99.90;;;;;;4982533;28;20034;-59
2022/08/17 10:02:17;;;;;;;31.58;24.00;;;24.50;99.90;;;;;;4980331;28;20037;-58
2022/08/17 10:05:02;;;;;;;30.52;25.17;;;24.50;99.90;;;;;;4978894;28;20185;-58
2022/08/17 10:07:39;;;;;;;32.63;25.52;;;24.50;99.90;;;;;;4983496;28;20030;-58
2022/08/17 10:10:13;;;;;;;32.83;27.02;;;24.40;99.90;;;;;;4980821;28;20034;-59
2022/08/17 10:13:11;;;;;;;31.67;24.25;;;24.40;99.90;;;;;;4987367;28;20058;-58
2022/08/17 10:15:43;;;;;;;30.88;27.52;;;24.40;99.90;;;;;;4990823;28;20090;-58
2022/08/17 10:18:29;;;;;;;40.38;29.05;;;24.30;99.90;;;;;;4987500;28;20112;-57
2022/08/17 10:26:11;;;;;;;37.63;30.25;;;24.30;99.90;;;;;;4986359;28;20065;-57
2022/08/17 10:26:30;;;;;;;34.15;30.42;;;24.30;99.90;;;;;;4986480;28;20127;-58
2022/08/17 10:29:15;;;;;;;34.33;29.05;;;24.20;99.90;;;;;;4985833;28;20015;-58
2022/08/17 10:31:52;;;;;;;33.80;30.02;;;24.20;99.90;;;;;;4985633;28;20034;-58
2022/08/17 10:34:36;;;;;;;37.75;30.15;;;24.00;99.90;;;;;;4984047;28;20034;-58
2022/08/17 10:37:19;;;;;;;32.95;29.42;;;23.90;99.90;;;;;;4984605;28;20034;-57
2022/08/17 10:40:16;;;;;;;38.25;34.08;;;23.70;99.90;;;;;;4983719;28;20490;-57
2022/08/17 10:43:10;;;;;;;34.42;30.80;;;23.70;99.90;;;;;;4983866;28;20041;-58
2022/08/17 10:45:53;;;;;;;35.20;29.63;;;23.60;99.90;;;;;;4984268;28;20475;-58
2022/08/17 10:48:35;;;;;;;33.03;29.65;;;23.60;99.90;;;;;;4980644;28;20026;-57
2022/08/17 10:51:36;;;;;;;34.72;30.92;;;23.70;99.90;;;;;;4984884;28;20113;-57
2022/08/17 10:54:22;;;;;;;32.50;28.95;;;23.60;99.90;;;;;;4982046;28;20037;-58
2022/08/17 10:56:56;;;;;;;35.85;30.67;;;23.60;99.90;;;;;;4980642;28;20038;-57
2022/08/17 10:59:34;;;;;;;33.50;29.95;;;23.50;99.90;;;;;;4984844;28;20030;-57
2022/08/17 11:02:30;;;;;;;34.80;29.40;;;23.60;99.90;;;;;;4979703;28;20101;-58
2022/08/17 11:05:27;;;;;;;34.83;29.58;;;23.70;99.90;;;;;;4980567;28;20038;-56
2022/08/17 11:08:12;;;;;;;31.45;27.77;;;23.60;99.90;;;;;;4981775;28;20023;-57
2022/08/17 11:11:05;;;;;;;32.50;29.15;;;23.60;99.90;;;;;;4987497;28;20456;-59
2022/08/17 11:13:52;;;;;;;34.55;29.92;;;23.50;99.90;;;;;;4983836;28;20037;-57
2022/08/17 11:16:46;;;;;;;35.95;30.02;;;23.40;99.90;;;;;;4984724;28;20113;-58
2022/08/17 11:19:49;;;;;;;33.67;29.60;;;23.30;99.90;;;;;;4984796;28;20030;-58
2022/08/17 11:22:18;;;;;;;34.45;30.15;;;23.10;99.90;;;;;;4983137;28;20469;-58
2022/08/17 11:24:46;;;;;;;34.40;30.05;;;22.60;99.90;;;;;;4981374;28;20092;-57
2022/08/17 11:27:28;;;;;;;35.70;31.83;;;22.40;99.90;;;;;;4984233;28;20125;-58
2022/08/17 11:30:05;;;;;;;40.65;36.13;;;22.40;99.90;;;;;;4981262;28;20018;-58
2022/08/17 11:32:40;;;;;;;43.38;38.78;;;22.30;99.90;;;;;;4990326;28;20035;-58
2022/08/17 11:35:12;;;;;;;43.30;37.33;;;22.00;99.90;;;;;;4983293;28;20463;-59
2022/08/17 11:37:44;;;;;;;45.78;37.97;;;22.00;99.90;;;;;;4984444;28;20041;-57
2022/08/17 11:40:52;;;;;;;44.13;38.97;;;22.10;99.90;;;;;;4981578;28;20038;-57
2022/08/17 11:43:42;;;;;;;47.85;41.85;;;21.90;99.90;;;;;;4971069;28;20109;-57
2022/08/17 11:52:41;;;;;;;47.33;42.28;;;21.90;99.90;;;;;;4985547;28;20085;-57
2022/08/17 11:55:10;;;;;;;50.65;43.47;;;22.10;99.90;;;;;;4980882;28;20481;-57
2022/08/17 11:57:39;;;;;;;47.22;42.20;;;22.10;99.90;;;;;;4982480;28;20212;-57
2022/08/17 12:00:10;;;;;;;49.47;43.40;;;22.30;99.90;;;;;;4979727;28;20030;-58
2022/08/17 12:02:42;;;;;;;47.08;42.33;;;22.40;99.90;;;;;;4984140;28;20613;-58
2022/08/17 12:05:13;;;;;;;51.75;46.22;;;22.60;99.90;;;;;;4979493;28;20038;-58
2022/08/17 12:08:00;;;;;;;52.17;45.67;;;22.60;99.90;;;;;;4981052;28;20038;-57
2022/08/17 12:10:31;;;;;;;49.75;44.53;;;22.70;99.90;;;;;;4984419;28;20513;-57
2022/08/17 12:13:02;;;;;;;53.47;47.67;;;23.00;99.90;;;;;;4985254;28;20157;-58
2022/08/17 12:15:31;;;;;;;52.97;47.50;;;23.40;99.90;;;;;;4985155;28;20029;-57
2022/08/17 12:17:57;;;;;;;54.22;48.55;;;23.50;99.90;;;;;;4979036;28;20026;-57
2022/08/17 12:20:36;;;;;;;52.05;46.53;;;23.10;99.90;;;;;;4986592;28;20026;-57
2022/08/17 12:23:16;;;;;;;51.17;45.80;;;23.20;99.90;;;;;;4983715;28;20509;-58
2022/08/17 12:25:45;;;;;;;53.47;47.83;;;23.30;99.90;;;;;;4982273;28;20041;-58
2022/08/17 12:28:38;;;;;;;55.28;49.05;;;23.50;99.90;;;;;;4982664;28;20030;-57
2022/08/17 12:31:10;;;;;;;56.90;50.92;;;23.40;99.90;;;;;;4982713;28;20080;-57
2022/08/17 12:33:44;;;;;;;55.10;49.28;;;23.30;99.90;;;;;;4984626;28;20034;-57
2022/08/17 12:36:14;;;;;;;52.20;46.72;;;23.30;99.90;;;;;;4980724;28;20489;-58
2022/08/17 12:38:58;;;;;;;56.63;50.47;;;23.30;99.90;;;;;;4982720;28;20647;-58
2022/08/17 12:41:33;;;;;;;;;;;23.20;99.90;;;;;;4981468;28;20060;-57
2022/08/17 12:44:08;;;;;;;54.65;48.90;;;23.30;99.90;;;;;;4987112;28;19961;-58
2022/08/17 12:46:50;;;;;;;56.05;50.22;;;23.50;99.90;;;;;;4984412;28;20462;-57
2022/08/17 12:49:29;;;;;;;53.80;48.10;;;23.30;99.90;;;;;;4982616;28;20445;-57
2022/08/17 12:52:09;;;;;;;54.67;48.97;;;23.50;99.90;;;;;;4979662;28;20525;-58
2022/08/17 12:54:50;;;;;;;53.15;47.47;;;23.70;99.90;;;;;;4981148;28;20056;-58
2022/08/17 12:57:31;;;;;;;54.97;48.55;;;23.90;99.90;;;;;;4980705;28;20417;-58
2022/08/17 13:00:27;;;;;;;55.13;49.20;;;23.80;99.90;;;;;;4981885;28;20470;-59
2022/08/17 13:03:04;;;;;;;57.35;51.35;;;23.70;99.90;;;;;;4981344;28;20038;-59
2022/08/17 13:05:37;;;;;;;55.72;49.90;;;23.70;99.90;;;;;;4974433;28;20426;-58
2022/08/17 13:08:31;;;;;;;58.15;51.80;;;23.50;99.90;;;;;;4981466;28;20031;-57
2022/08/17 13:11:00;;;;;;;56.67;50.72;;;23.30;99.90;;;;;;4983328;28;20192;-58
2022/08/17 13:13:34;;;;;;;55.08;48.72;;;23.40;99.90;;;;;;4981570;28;20129;-58
2022/08/17 13:16:16;;;;;;;57.60;51.42;;;23.50;99.90;;;;;;4976171;28;20113;-58
2022/08/17 13:18:44;;;;;;;60.80;53.13;;;23.70;99.90;;;;;;4983618;28;20130;-59
2022/08/17 13:21:20;;;;;;;57.80;51.75;;;23.60;99.90;;;;;;4980308;28;20025;-57
2022/08/17 13:24:29;;;;;;;57.22;50.63;;;23.60;99.90;;;;;;4978674;28;20026;-58
2022/08/17 13:27:00;;;;;;;59.90;53.47;;;23.70;99.90;;;;;;5002044;28;20063;-58
2022/08/17 13:29:31;;;;;;;58.00;51.95;;;24.00;99.90;;;;;;4987092;28;20033;-58
2022/08/17 13:32:02;;;;;;;60.30;54.08;;;24.20;99.90;;;;;;4984259;28;20508;-58
2022/08/17 13:34:28;;;;;;;60.03;53.50;;;24.30;99.90;;;;;;4982650;28;20043;-58
2022/08/17 13:37:25;;;;;;;60.70;54.20;;;24.00;99.90;;;;;;4982996;28;20042;-57
2022/08/17 13:39:53;;;;;;;60.63;54.15;;;23.90;99.90;;;;;;4979545;28;20022;-58